sensor_id;sensor_type;location;lat;lon;timestamp;pressure;altitude;pressure_sealevel;temperature;humidity
41062;BME280;26812;42.662;23.352;2022-08-02T00:02:19;94773.19;;;21.37;45.91
41062;BME280;26812;42.662;23.352;2022-08-02T00:04:45;94774.38;;;21.32;46.17
41062;BME280;26812;42.662;23.352;2022-08-02T00:07:10;94759.88;;;21.35;46.13
41062;BME280;26812;42.662;23.352;2022-08-02T00:09:36;94760.69;;;21.39;46.42
41062;BME280;26812;42.662;23.352;2022-08-02T00:12:02;94759.16;;;21.46;46.01
41062;BME280;26812;42.662;23.352;2022-08-02T00:14:27;94765.41;;;21.57;46.55
41062;BME280;26812;42.662;23.352;2022-08-02T00:16:53;94758.38;;;21.56;46.45
41062;BME280;26812;42.662;23.352;2022-08-02T00:19:18;94754.84;;;21.48;46.09
41062;BME280;26812;42.662;23.352;2022-08-02T00:21:44;94746.22;;;21.50;46.01
41062;BME280;26812;42.662;23.352;2022-08-02T00:24:09;94754.84;;;21.55;46.36
41062;BME280;26812;42.662;23.352;2022-08-02T00:26:34;94761.09;;;21.56;46.38
41062;BME280;26812;42.662;23.352;2022-08-02T00:29:00;94756.78;;;21.62;46.50
41062;BME280;26812;42.662;23.352;2022-08-02T00:31:25;94748.56;;;21.51;47.81
41062;BME280;26812;42.662;23.352;2022-08-02T00:33:51;94740.31;;;21.30;48.66
41062;BME280;26812;42.662;23.352;2022-08-02T00:36:16;94750.41;;;21.08;50.02
41062;BME280;26812;42.662;23.352;2022-08-02T00:38:41;94747.63;;;20.87;50.87
41062;BME280;26812;42.662;23.352;2022-08-02T00:41:12;94760.81;;;20.56;52.36
41062;BME280;26812;42.662;23.352;2022-08-02T00:43:38;94767.47;;;20.62;52.58
41062;BME280;26812;42.662;23.352;2022-08-02T00:46:03;94763.22;;;20.79;52.10
41062;BME280;26812;42.662;23.352;2022-08-02T00:48:29;94751.53;;;20.86;51.98
41062;BME280;26812;42.662;23.352;2022-08-02T00:50:54;94760.56;;;20.93;52.11
41062;BME280;26812;42.662;23.352;2022-08-02T00:53:21;94761.72;;;20.92;51.99
41062;BME280;26812;42.662;23.352;2022-08-02T00:55:46;94754.66;;;20.88;51.83
41062;BME280;26812;42.662;23.352;2022-08-02T00:58:12;94749.19;;;20.84;52.08
41062;BME280;26812;42.662;23.352;2022-08-02T01:00:37;94758.97;;;20.89;52.48
41062;BME280;26812;42.662;23.352;2022-08-02T01:03:02;94758.97;;;20.82;52.52
41062;BME280;26812;42.662;23.352;2022-08-02T01:05:28;94759.16;;;20.41;53.47
41062;BME280;26812;42.662;23.352;2022-08-02T01:07:53;94751.34;;;19.88;54.65
41062;BME280;26812;42.662;23.352;2022-08-02T01:10:19;94742.59;;;19.65;55.51
41062;BME280;26812;42.662;23.352;2022-08-02T01:12:45;94750.78;;;19.61;55.75
41062;BME280;26812;42.662;23.352;2022-08-02T01:15:12;94759.91;;;19.39;55.72
41062;BME280;26812;42.662;23.352;2022-08-02T01:17:53;94736.53;;;19.45;55.88
41062;BME280;26812;42.662;23.352;2022-08-02T01:26:15;94760.25;;;18.97;57.17
41062;BME280;26812;42.662;23.352;2022-08-02T01:28:53;94765.78;;;19.00;57.05
41062;BME280;26812;42.662;23.352;2022-08-02T01:31:31;94764.06;;;19.26;56.34
41062;BME280;26812;42.662;23.352;2022-08-02T01:34:31;94757.63;;;19.48;55.50
41062;BME280;26812;42.662;23.352;2022-08-02T01:39:56;94764.59;;;19.38;55.29
41062;BME280;26812;42.662;23.352;2022-08-02T01:42:26;94767.75;;;19.44;55.24
41062;BME280;26812;42.662;23.352;2022-08-02T01:44:52;94759.22;;;19.49;55.11
41062;BME280;26812;42.662;23.352;2022-08-02T01:47:23;94767.81;;;19.51;55.22
41062;BME280;26812;42.662;23.352;2022-08-02T01:49:52;94756.28;;;19.28;55.62
41062;BME280;26812;42.662;23.352;2022-08-02T01:52:20;94763.41;;;19.36;55.59
41062;BME280;26812;42.662;23.352;2022-08-02T01:55:10;94764.00;;;19.18;55.88
41062;BME280;26812;42.662;23.352;2022-08-02T01:57:44;94766.41;;;19.27;55.61
41062;BME280;26812;42.662;23.352;2022-08-02T02:00:11;94777.69;;;19.22;55.48
41062;BME280;26812;42.662;23.352;2022-08-02T02:02:39;94774.53;;;19.20;55.83
41062;BME280;26812;42.662;23.352;2022-08-02T02:05:10;94772.84;;;19.05;56.05
41062;BME280;26812;42.662;23.352;2022-08-02T02:07:36;94756.13;;;19.10;55.82
41062;BME280;26812;42.662;23.352;2022-08-02T02:10:04;94764.31;;;19.10;56.01
41062;BME280;26812;42.662;23.352;2022-08-02T02:12:33;94772.19;;;19.18;55.94
41062;BME280;26812;42.662;23.352;2022-08-02T02:15:01;94758.47;;;19.11;56.08
41062;BME280;26812;42.662;23.352;2022-08-02T02:17:28;94762.59;;;18.65;57.48
41062;BME280;26812;42.662;23.352;2022-08-02T02:19:56;94770.06;;;18.11;59.43
41062;BME280;26812;42.662;23.352;2022-08-02T02:22:22;94765.38;;;18.08;60.01
41062;BME280;26812;42.662;23.352;2022-08-02T02:24:48;94767.53;;;18.25;59.25
41062;BME280;26812;42.662;23.352;2022-08-02T02:27:15;94755.16;;;18.31;58.99
41062;BME280;26812;42.662;23.352;2022-08-02T02:29:43;94761.13;;;18.41;58.89
41062;BME280;26812;42.662;23.352;2022-08-02T02:32:10;94773.69;;;18.49;58.65
41062;BME280;26812;42.662;23.352;2022-08-02T02:34:38;94770.22;;;18.52;58.38
41062;BME280;26812;42.662;23.352;2022-08-02T02:37:11;94736.31;;;17.93;60.15
41062;BME280;26812;42.662;23.352;2022-08-02T02:39:38;94759.91;;;18.08;60.34
41062;BME280;26812;42.662;23.352;2022-08-02T02:42:08;94764.94;;;18.06;59.55
41062;BME280;26812;42.662;23.352;2022-08-02T02:44:35;94761.00;;;18.04;60.37
41062;BME280;26812;42.662;23.352;2022-08-02T02:47:02;94766.66;;;18.18;59.94
41062;BME280;26812;42.662;23.352;2022-08-02T02:49:30;94764.94;;;18.06;59.23
41062;BME280;26812;42.662;23.352;2022-08-02T02:51:57;94764.63;;;18.11;59.49
41062;BME280;26812;42.662;23.352;2022-08-02T02:54:24;94758.63;;;18.02;59.56
41062;BME280;26812;42.662;23.352;2022-08-02T02:56:51;94713.22;;;17.83;59.67
41062;BME280;26812;42.662;23.352;2022-08-02T02:59:17;94774.31;;;18.09;59.81
41062;BME280;26812;42.662;23.352;2022-08-02T03:01:43;94768.38;;;18.03;59.63
41062;BME280;26812;42.662;23.352;2022-08-02T03:04:10;94761.84;;;18.08;59.80
41062;BME280;26812;42.662;23.352;2022-08-02T03:06:37;94775.31;;;18.23;59.44
41062;BME280;26812;42.662;23.352;2022-08-02T03:09:03;94764.72;;;18.18;59.29
41062;BME280;26812;42.662;23.352;2022-08-02T03:11:30;94758.66;;;18.32;59.11
41062;BME280;26812;42.662;23.352;2022-08-02T03:13:59;94771.47;;;18.28;59.09
41062;BME280;26812;42.662;23.352;2022-08-02T03:16:26;94771.91;;;18.34;59.09
41062;BME280;26812;42.662;23.352;2022-08-02T03:18:56;94757.50;;;18.33;58.85
41062;BME280;26812;42.662;23.352;2022-08-02T03:21:22;94773.28;;;18.47;58.68
41062;BME280;26812;42.662;23.352;2022-08-02T03:23:48;94770.97;;;18.49;58.59
41062;BME280;26812;42.662;23.352;2022-08-02T03:26:14;94766.25;;;18.46;58.54
41062;BME280;26812;42.662;23.352;2022-08-02T03:28:40;94755.25;;;18.39;58.75
41062;BME280;26812;42.662;23.352;2022-08-02T03:31:05;94775.59;;;18.45;58.88
41062;BME280;26812;42.662;23.352;2022-08-02T03:33:32;94760.75;;;18.42;58.79
41062;BME280;26812;42.662;23.352;2022-08-02T03:36:01;94757.28;;;18.45;58.81
41062;BME280;26812;42.662;23.352;2022-08-02T03:38:29;94764.84;;;18.59;58.55
41062;BME280;26812;42.662;23.352;2022-08-02T03:40:55;94762.13;;;18.59;58.57
41062;BME280;26812;42.662;23.352;2022-08-02T03:43:22;94765.75;;;18.67;58.57
41062;BME280;26812;42.662;23.352;2022-08-02T03:45:49;94769.25;;;18.67;58.27
41062;BME280;26812;42.662;23.352;2022-08-02T03:48:15;94765.72;;;18.63;58.43
41062;BME280;26812;42.662;23.352;2022-08-02T03:50:42;94782.97;;;18.71;58.30
41062;BME280;26812;42.662;23.352;2022-08-02T03:53:08;94776.97;;;18.91;58.17
41062;BME280;26812;42.662;23.352;2022-08-02T03:55:38;94788.47;;;19.08;57.95
41062;BME280;26812;42.662;23.352;2022-08-02T03:58:04;94779.94;;;19.13;57.45
41062;BME280;26812;42.662;23.352;2022-08-02T04:00:30;94798.78;;;19.25;57.15
41062;BME280;26812;42.662;23.352;2022-08-02T04:02:55;94781.22;;;19.26;56.81
41062;BME280;26812;42.662;23.352;2022-08-02T04:05:21;94792.22;;;19.30;57.04
41062;BME280;26812;42.662;23.352;2022-08-02T04:07:46;94802.44;;;19.36;56.78
41062;BME280;26812;42.662;23.352;2022-08-02T04:10:16;94799.63;;;19.29;56.71
41062;BME280;26812;42.662;23.352;2022-08-02T04:12:42;94803.97;;;19.34;56.74
41062;BME280;26812;42.662;23.352;2022-08-02T04:15:08;94818.16;;;19.50;56.72
41062;BME280;26812;42.662;23.352;2022-08-02T04:17:39;94816.59;;;19.49;56.60
41062;BME280;26812;42.662;23.352;2022-08-02T04:20:10;94814.91;;;19.37;56.52
41062;BME280;26812;42.662;23.352;2022-08-02T04:22:46;94807.25;;;19.13;57.32
41062;BME280;26812;42.662;23.352;2022-08-02T04:25:13;94826.03;;;19.18;57.56
41062;BME280;26812;42.662;23.352;2022-08-02T04:27:40;94808.69;;;19.03;58.06
41062;BME280;26812;42.662;23.352;2022-08-02T04:30:07;94813.78;;;19.05;58.13
41062;BME280;26812;42.662;23.352;2022-08-02T04:32:34;94827.03;;;19.03;58.04
41062;BME280;26812;42.662;23.352;2022-08-02T04:34:59;94809.50;;;19.04;57.94
41062;BME280;26812;42.662;23.352;2022-08-02T04:37:26;94799.81;;;19.10;58.22
41062;BME280;26812;42.662;23.352;2022-08-02T04:39:51;94807.59;;;19.08;58.09
41062;BME280;26812;42.662;23.352;2022-08-02T04:42:21;94807.34;;;19.23;57.95
41062;BME280;26812;42.662;23.352;2022-08-02T04:44:47;94805.09;;;19.29;57.86
41062;BME280;26812;42.662;23.352;2022-08-02T04:47:13;94811.03;;;19.38;57.58
41062;BME280;26812;42.662;23.352;2022-08-02T04:49:39;94812.69;;;19.13;56.97
41062;BME280;26812;42.662;23.352;2022-08-02T04:52:04;94812.91;;;19.31;57.17
41062;BME280;26812;42.662;23.352;2022-08-02T04:54:30;94817.75;;;19.48;56.38
41062;BME280;26812;42.662;23.352;2022-08-02T04:56:55;94802.13;;;19.48;55.65
41062;BME280;26812;42.662;23.352;2022-08-02T04:59:20;94806.53;;;19.57;55.62
41062;BME280;26812;42.662;23.352;2022-08-02T05:01:47;94819.50;;;19.63;56.41
41062;BME280;26812;42.662;23.352;2022-08-02T05:04:12;94808.16;;;19.61;55.83
41062;BME280;26812;42.662;23.352;2022-08-02T05:06:37;94816.47;;;19.75;55.30
41062;BME280;26812;42.662;23.352;2022-08-02T05:09:04;94810.31;;;19.89;54.87
41062;BME280;26812;42.662;23.352;2022-08-02T05:11:29;94817.09;;;20.02;54.23
41062;BME280;26812;42.662;23.352;2022-08-02T05:13:55;94816.00;;;20.17;54.75
41062;BME280;26812;42.662;23.352;2022-08-02T05:16:20;94808.69;;;20.29;54.26
41062;BME280;26812;42.662;23.352;2022-08-02T05:18:46;94821.31;;;20.48;53.92
41062;BME280;26812;42.662;23.352;2022-08-02T05:21:11;94824.53;;;20.60;53.35
41062;BME280;26812;42.662;23.352;2022-08-02T05:23:37;94823.03;;;20.73;53.17
41062;BME280;26812;42.662;23.352;2022-08-02T05:26:02;94816.84;;;20.84;53.01
41062;BME280;26812;42.662;23.352;2022-08-02T05:28:27;94828.66;;;21.02;52.06
41062;BME280;26812;42.662;23.352;2022-08-02T05:30:53;94831.50;;;21.23;51.30
41062;BME280;26812;42.662;23.352;2022-08-02T05:33:18;94822.13;;;21.24;51.13
41062;BME280;26812;42.662;23.352;2022-08-02T05:35:44;94826.84;;;21.42;51.29
41062;BME280;26812;42.662;23.352;2022-08-02T05:38:09;94803.75;;;21.43;50.67
41062;BME280;26812;42.662;23.352;2022-08-02T05:40:35;94835.16;;;21.81;49.79
41062;BME280;26812;42.662;23.352;2022-08-02T05:43:00;94835.53;;;21.97;49.33
41062;BME280;26812;42.662;23.352;2022-08-02T05:45:26;94835.97;;;22.13;48.94
41062;BME280;26812;42.662;23.352;2022-08-02T05:47:51;94835.19;;;22.20;48.58
41062;BME280;26812;42.662;23.352;2022-08-02T05:50:17;94823.03;;;22.35;47.70
41062;BME280;26812;42.662;23.352;2022-08-02T05:52:50;94834.75;;;22.53;46.97
41062;BME280;26812;42.662;23.352;2022-08-02T05:55:33;94833.97;;;22.56;46.71
41062;BME280;26812;42.662;23.352;2022-08-02T05:58:05;94841.78;;;22.86;45.20
41062;BME280;26812;42.662;23.352;2022-08-02T06:00:32;94845.34;;;22.69;46.90
41062;BME280;26812;42.662;23.352;2022-08-02T06:03:21;94842.94;;;22.85;46.14
41062;BME280;26812;42.662;23.352;2022-08-02T06:06:24;94850.78;;;22.94;44.84
41062;BME280;26812;42.662;23.352;2022-08-02T06:08:57;94860.91;;;23.18;44.42
41062;BME280;26812;42.662;23.352;2022-08-02T06:11:30;94854.59;;;23.21;43.79
41062;BME280;26812;42.662;23.352;2022-08-02T06:13:57;94848.28;;;23.35;42.21
41062;BME280;26812;42.662;23.352;2022-08-02T06:16:26;94857.59;;;23.52;42.04
41062;BME280;26812;42.662;23.352;2022-08-02T06:18:52;94855.28;;;23.47;41.30
41062;BME280;26812;42.662;23.352;2022-08-02T06:21:18;94847.38;;;23.56;42.10
41062;BME280;26812;42.662;23.352;2022-08-02T06:23:46;94859.88;;;23.71;42.94
41062;BME280;26812;42.662;23.352;2022-08-02T06:26:12;94860.69;;;23.68;41.63
41062;BME280;26812;42.662;23.352;2022-08-02T06:28:39;94850.34;;;23.90;40.66
41062;BME280;26812;42.662;23.352;2022-08-02T06:31:05;94860.97;;;23.88;41.27
41062;BME280;26812;42.662;23.352;2022-08-02T06:33:31;94864.88;;;23.91;41.02
41062;BME280;26812;42.662;23.352;2022-08-02T06:36:03;94876.28;;;23.93;40.18
41062;BME280;26812;42.662;23.352;2022-08-02T06:38:32;94841.53;;;23.47;41.99
41062;BME280;26812;42.662;23.352;2022-08-02T06:41:04;94868.47;;;23.80;41.15
41062;BME280;26812;42.662;23.352;2022-08-02T06:44:00;94879.72;;;24.04;41.38
41062;BME280;26812;42.662;23.352;2022-08-02T06:46:27;94861.53;;;24.17;41.03
41062;BME280;26812;42.662;23.352;2022-08-02T06:48:52;94861.84;;;24.33;40.01
41062;BME280;26812;42.662;23.352;2022-08-02T06:51:18;94872.72;;;24.48;39.62
41062;BME280;26812;42.662;23.352;2022-08-02T06:53:45;94865.25;;;24.48;39.42
41062;BME280;26812;42.662;23.352;2022-08-02T06:56:10;94860.91;;;24.51;39.83
41062;BME280;26812;42.662;23.352;2022-08-02T06:58:36;94852.91;;;24.63;39.94
41062;BME280;26812;42.662;23.352;2022-08-02T07:01:01;94861.66;;;24.55;40.50
41062;BME280;26812;42.662;23.352;2022-08-02T07:03:27;94860.28;;;24.73;40.17
41062;BME280;26812;42.662;23.352;2022-08-02T07:05:52;94855.78;;;24.90;39.22
41062;BME280;26812;42.662;23.352;2022-08-02T07:08:20;94855.31;;;24.99;38.47
41062;BME280;26812;42.662;23.352;2022-08-02T07:10:45;94861.13;;;25.08;39.26
41062;BME280;26812;42.662;23.352;2022-08-02T07:13:11;94864.06;;;25.28;37.52
41062;BME280;26812;42.662;23.352;2022-08-02T07:15:37;94864.47;;;25.26;39.04
41062;BME280;26812;42.662;23.352;2022-08-02T07:18:04;94855.22;;;25.44;38.58
41062;BME280;26812;42.662;23.352;2022-08-02T07:20:29;94873.69;;;25.47;37.19
41062;BME280;26812;42.662;23.352;2022-08-02T07:22:55;94863.84;;;25.46;38.20
41062;BME280;26812;42.662;23.352;2022-08-02T07:25:21;94847.25;;;25.49;37.40
41062;BME280;26812;42.662;23.352;2022-08-02T07:27:46;94857.72;;;25.61;37.78
41062;BME280;26812;42.662;23.352;2022-08-02T07:30:12;94866.88;;;25.85;37.71
41062;BME280;26812;42.662;23.352;2022-08-02T07:32:38;94862.63;;;25.81;37.03
41062;BME280;26812;42.662;23.352;2022-08-02T07:35:04;94865.25;;;25.57;37.52
41062;BME280;26812;42.662;23.352;2022-08-02T07:37:34;94856.06;;;25.37;38.06
41062;BME280;26812;42.662;23.352;2022-08-02T07:40:00;94849.81;;;25.63;38.46
41062;BME280;26812;42.662;23.352;2022-08-02T07:42:25;94855.94;;;25.78;37.44
41062;BME280;26812;42.662;23.352;2022-08-02T07:44:52;94852.31;;;25.85;36.76
41062;BME280;26812;42.662;23.352;2022-08-02T07:47:18;94852.66;;;25.87;36.99
41062;BME280;26812;42.662;23.352;2022-08-02T07:49:43;94855.44;;;25.87;36.16
41062;BME280;26812;42.662;23.352;2022-08-02T07:52:09;94853.56;;;26.07;37.07
41062;BME280;26812;42.662;23.352;2022-08-02T07:54:34;94855.66;;;26.23;36.49
41062;BME280;26812;42.662;23.352;2022-08-02T07:57:00;94843.47;;;26.47;36.77
41062;BME280;26812;42.662;23.352;2022-08-02T07:59:26;94863.09;;;26.76;36.26
41062;BME280;26812;42.662;23.352;2022-08-02T08:01:51;94859.13;;;27.01;35.03
41062;BME280;26812;42.662;23.352;2022-08-02T08:04:17;94856.06;;;27.15;34.54
41062;BME280;26812;42.662;23.352;2022-08-02T08:06:43;94844.09;;;27.21;34.84
41062;BME280;26812;42.662;23.352;2022-08-02T08:09:10;94847.34;;;27.36;34.40
41062;BME280;26812;42.662;23.352;2022-08-02T08:11:35;94851.97;;;27.43;34.20
41062;BME280;26812;42.662;23.352;2022-08-02T08:14:01;94846.00;;;27.64;33.46
41062;BME280;26812;42.662;23.352;2022-08-02T08:16:26;94847.28;;;27.60;34.08
41062;BME280;26812;42.662;23.352;2022-08-02T08:18:53;94859.66;;;27.91;34.01
41062;BME280;26812;42.662;23.352;2022-08-02T08:21:19;94851.19;;;28.14;33.14
41062;BME280;26812;42.662;23.352;2022-08-02T08:23:44;94853.75;;;28.25;32.92
41062;BME280;26812;42.662;23.352;2022-08-02T08:26:10;94856.94;;;28.24;33.83
41062;BME280;26812;42.662;23.352;2022-08-02T08:28:36;94866.56;;;28.35;33.10
41062;BME280;26812;42.662;23.352;2022-08-02T08:31:01;94839.47;;;28.27;32.73
41062;BME280;26812;42.662;23.352;2022-08-02T08:33:26;94850.34;;;28.18;32.51
41062;BME280;26812;42.662;23.352;2022-08-02T08:35:52;94847.81;;;28.07;32.96
41062;BME280;26812;42.662;23.352;2022-08-02T08:38:18;94848.75;;;28.00;32.86
41062;BME280;26812;42.662;23.352;2022-08-02T08:40:47;94844.25;;;28.06;33.03
41062;BME280;26812;42.662;23.352;2022-08-02T08:43:13;94856.00;;;28.30;32.52
41062;BME280;26812;42.662;23.352;2022-08-02T08:45:48;94810.16;;;28.09;32.40
41062;BME280;26812;42.662;23.352;2022-08-02T08:48:16;94846.56;;;28.60;31.56
41062;BME280;26812;42.662;23.352;2022-08-02T08:51:04;94840.31;;;28.40;31.11
41062;BME280;26812;42.662;23.352;2022-08-02T08:53:39;94848.00;;;28.65;31.63
41062;BME280;26812;42.662;23.352;2022-08-02T08:56:05;94848.25;;;28.70;31.62
41062;BME280;26812;42.662;23.352;2022-08-02T08:58:31;94846.28;;;28.71;31.56
41062;BME280;26812;42.662;23.352;2022-08-02T09:00:57;94849.63;;;28.95;32.34
41062;BME280;26812;42.662;23.352;2022-08-02T09:03:22;94843.56;;;29.00;32.27
41062;BME280;26812;42.662;23.352;2022-08-02T09:05:48;94848.31;;;28.99;32.00
41062;BME280;26812;42.662;23.352;2022-08-02T09:08:14;94851.69;;;29.07;31.22
41062;BME280;26812;42.662;23.352;2022-08-02T09:13:08;94853.78;;;29.03;31.60
41062;BME280;26812;42.662;23.352;2022-08-02T09:15:38;94851.31;;;29.21;31.12
41062;BME280;26812;42.662;23.352;2022-08-02T09:18:04;94850.31;;;29.28;29.90
41062;BME280;26812;42.662;23.352;2022-08-02T09:26:09;94810.75;;;28.82;30.35
41062;BME280;26812;42.662;23.352;2022-08-02T09:28:37;94845.22;;;28.81;29.80
41062;BME280;26812;42.662;23.352;2022-08-02T09:31:05;94828.63;;;28.65;30.40
41062;BME280;26812;42.662;23.352;2022-08-02T09:33:30;94841.53;;;28.88;31.21
41062;BME280;26812;42.662;23.352;2022-08-02T09:36:01;94831.59;;;29.03;32.28
41062;BME280;26812;42.662;23.352;2022-08-02T09:38:28;94842.09;;;29.24;30.52
41062;BME280;26812;42.662;23.352;2022-08-02T09:40:54;94830.91;;;29.28;30.14
41062;BME280;26812;42.662;23.352;2022-08-02T09:43:19;94818.59;;;28.38;30.94
41062;BME280;26812;42.662;23.352;2022-08-02T09:45:45;94837.13;;;28.58;33.26
41062;BME280;26812;42.662;23.352;2022-08-02T09:48:10;94837.53;;;28.89;31.50
41062;BME280;26812;42.662;23.352;2022-08-02T09:50:37;94823.88;;;29.11;31.98
41062;BME280;26812;42.662;23.352;2022-08-02T09:53:03;94818.03;;;29.34;31.01
41062;BME280;26812;42.662;23.352;2022-08-02T09:55:29;94821.47;;;29.25;32.31
41062;BME280;26812;42.662;23.352;2022-08-02T09:57:54;94818.81;;;29.34;30.54
41062;BME280;26812;42.662;23.352;2022-08-02T10:00:21;94823.13;;;29.52;31.87
41062;BME280;26812;42.662;23.352;2022-08-02T10:03:09;94821.16;;;29.78;30.44
41062;BME280;26812;42.662;23.352;2022-08-02T10:05:51;94817.78;;;29.45;30.36
41062;BME280;26812;42.662;23.352;2022-08-02T10:08:18;94812.31;;;29.41;30.46
41062;BME280;26812;42.662;23.352;2022-08-02T10:10:44;94810.31;;;29.42;30.36
41062;BME280;26812;42.662;23.352;2022-08-02T10:13:09;94811.09;;;29.42;32.22
41062;BME280;26812;42.662;23.352;2022-08-02T10:15:36;94812.56;;;29.47;31.33
41062;BME280;26812;42.662;23.352;2022-08-02T10:18:04;94811.91;;;29.26;29.84
41062;BME280;26812;42.662;23.352;2022-08-02T10:20:32;94816.13;;;28.73;30.24
41062;BME280;26812;42.662;23.352;2022-08-02T10:23:02;94815.88;;;28.67;30.58
41062;BME280;26812;42.662;23.352;2022-08-02T10:25:28;94806.19;;;28.59;30.69
41062;BME280;26812;42.662;23.352;2022-08-02T10:27:55;94797.72;;;28.50;31.40
41062;BME280;26812;42.662;23.352;2022-08-02T10:30:23;94805.06;;;28.57;31.77
41062;BME280;26812;42.662;23.352;2022-08-02T10:32:52;94788.50;;;28.86;31.62
41062;BME280;26812;42.662;23.352;2022-08-02T10:35:21;94796.66;;;29.05;31.02
41062;BME280;26812;42.662;23.352;2022-08-02T10:37:49;94792.13;;;29.12;30.46
41062;BME280;26812;42.662;23.352;2022-08-02T10:40:16;94793.94;;;29.18;30.54
41062;BME280;26812;42.662;23.352;2022-08-02T10:42:49;94809.59;;;29.37;30.76
41062;BME280;26812;42.662;23.352;2022-08-02T10:45:20;94799.47;;;29.47;29.45
41062;BME280;26812;42.662;23.352;2022-08-02T10:53:29;94796.06;;;29.27;31.94
41062;BME280;26812;42.662;23.352;2022-08-02T10:56:01;94806.06;;;29.37;32.17
41062;BME280;26812;42.662;23.352;2022-08-02T10:58:29;94808.06;;;29.36;30.62
41062;BME280;26812;42.662;23.352;2022-08-02T11:01:03;94806.78;;;29.12;31.13
41062;BME280;26812;42.662;23.352;2022-08-02T11:03:36;94798.59;;;29.21;32.19
41062;BME280;26812;42.662;23.352;2022-08-02T11:06:08;94795.81;;;29.50;32.03
41062;BME280;26812;42.662;23.352;2022-08-02T11:08:34;94777.28;;;29.73;31.71
41062;BME280;26812;42.662;23.352;2022-08-02T11:14:00;94796.47;;;30.31;30.20
41062;BME280;26812;42.662;23.352;2022-08-02T11:19:23;94776.53;;;30.10;30.01
41062;BME280;26812;42.662;23.352;2022-08-02T11:22:06;94788.50;;;30.20;30.09
41062;BME280;26812;42.662;23.352;2022-08-02T11:24:35;94799.56;;;30.45;29.46
41062;BME280;26812;42.662;23.352;2022-08-02T11:27:02;94793.75;;;30.52;29.74
41062;BME280;26812;42.662;23.352;2022-08-02T11:31:58;94790.13;;;30.43;29.24
41062;BME280;26812;42.662;23.352;2022-08-02T11:34:24;94794.72;;;30.37;29.57
41062;BME280;26812;42.662;23.352;2022-08-02T11:36:51;94787.25;;;29.95;30.27
41062;BME280;26812;42.662;23.352;2022-08-02T11:39:19;94788.69;;;30.00;30.07
41062;BME280;26812;42.662;23.352;2022-08-02T11:41:52;94796.06;;;29.81;28.80
41062;BME280;26812;42.662;23.352;2022-08-02T11:44:18;94786.41;;;29.31;30.49
41062;BME280;26812;42.662;23.352;2022-08-02T11:46:52;94770.34;;;29.39;31.25
41062;BME280;26812;42.662;23.352;2022-08-02T11:49:18;94782.25;;;29.65;30.39
41062;BME280;26812;42.662;23.352;2022-08-02T11:51:58;94769.69;;;29.98;29.31
41062;BME280;26812;42.662;23.352;2022-08-02T11:54:31;94787.78;;;29.40;30.07
41062;BME280;26812;42.662;23.352;2022-08-02T11:57:11;94784.16;;;29.68;30.48
41062;BME280;26812;42.662;23.352;2022-08-02T11:59:40;94789.16;;;29.98;30.61
41062;BME280;26812;42.662;23.352;2022-08-02T12:02:08;94779.03;;;30.30;30.78
41062;BME280;26812;42.662;23.352;2022-08-02T12:04:34;94783.16;;;30.38;30.29
41062;BME280;26812;42.662;23.352;2022-08-02T12:07:01;94783.50;;;30.15;29.13
41062;BME280;26812;42.662;23.352;2022-08-02T12:09:28;94776.31;;;30.05;29.92
41062;BME280;26812;42.662;23.352;2022-08-02T12:11:55;94787.16;;;29.86;29.16
41062;BME280;26812;42.662;23.352;2022-08-02T12:14:23;94767.81;;;29.45;29.24
41062;BME280;26812;42.662;23.352;2022-08-02T12:16:49;94773.84;;;29.81;29.74
41062;BME280;26812;42.662;23.352;2022-08-02T12:19:34;94776.97;;;30.09;29.69
41062;BME280;26812;42.662;23.352;2022-08-02T12:22:23;94780.38;;;30.25;29.35
41062;BME280;26812;42.662;23.352;2022-08-02T12:24:51;94781.25;;;30.35;29.31
41062;BME280;26812;42.662;23.352;2022-08-02T12:27:34;94789.09;;;30.49;29.16
41062;BME280;26812;42.662;23.352;2022-08-02T12:32:34;94779.59;;;30.25;28.92
41062;BME280;26812;42.662;23.352;2022-08-02T12:37:38;94781.41;;;30.06;29.67
41062;BME280;26812;42.662;23.352;2022-08-02T12:42:52;94781.59;;;30.24;29.75
41062;BME280;26812;42.662;23.352;2022-08-02T12:45:17;94767.91;;;30.43;29.40
41062;BME280;26812;42.662;23.352;2022-08-02T12:47:49;94784.16;;;30.79;29.03
41062;BME280;26812;42.662;23.352;2022-08-02T12:52:49;94776.09;;;31.15;29.67
41062;BME280;26812;42.662;23.352;2022-08-02T12:55:23;94772.50;;;31.28;28.56
41062;BME280;26812;42.662;23.352;2022-08-02T13:00:24;94758.41;;;30.53;28.10
41062;BME280;26812;42.662;23.352;2022-08-02T13:02:51;94771.72;;;30.71;28.28
41062;BME280;26812;42.662;23.352;2022-08-02T13:05:16;94763.19;;;30.52;29.03
41062;BME280;26812;42.662;23.352;2022-08-02T13:07:42;94743.97;;;30.45;28.80
41062;BME280;26812;42.662;23.352;2022-08-02T13:10:07;94756.78;;;30.77;28.93
41062;BME280;26812;42.662;23.352;2022-08-02T13:12:33;94745.47;;;30.72;28.85
41062;BME280;26812;42.662;23.352;2022-08-02T13:14:59;94752.72;;;30.22;28.56
41062;BME280;26812;42.662;23.352;2022-08-02T13:17:25;94754.59;;;30.25;29.77
41062;BME280;26812;42.662;23.352;2022-08-02T13:19:50;94764.41;;;30.04;29.15
41062;BME280;26812;42.662;23.352;2022-08-02T13:22:16;94756.38;;;29.43;30.28
41062;BME280;26812;42.662;23.352;2022-08-02T13:24:42;94750.63;;;29.62;31.49
41062;BME280;26812;42.662;23.352;2022-08-02T13:27:08;94775.63;;;29.75;30.49
41062;BME280;26812;42.662;23.352;2022-08-02T13:29:34;94756.72;;;29.45;30.34
41062;BME280;26812;42.662;23.352;2022-08-02T13:31:59;94750.22;;;29.22;30.90
41062;BME280;26812;42.662;23.352;2022-08-02T13:34:24;94764.28;;;29.44;31.48
41062;BME280;26812;42.662;23.352;2022-08-02T13:36:50;94764.88;;;29.35;31.61
41062;BME280;26812;42.662;23.352;2022-08-02T13:39:15;94770.69;;;28.99;30.97